Time;durP1;ratioP1;P1;durP2;ratioP2;P2;SDS_P1;SDS_P2;PMS_P1;PMS_P2;Temp;Humidity;BMP_temperature;BMP_pressure;BME280_temperature;BME280_humidity;BME280_pressure;Samples;Min_cycle;Max_cycle;Signal;HPM_P1;HPM_P2
2021/07/06 00:00:16;;;;;;;0.20;0.20;;;18.70;99.90;;;;;;5058557;28;20653;-85
2021/07/06 00:02:42;;;;;;;0.20;0.20;;;18.70;99.90;;;;;;5028706;28;20193;-84
2021/07/06 00:05:08;;;;;;;0.30;0.30;;;18.60;99.90;;;;;;5036275;28;20185;-84
2021/07/06 00:07:34;;;;;;;0.30;0.30;;;18.60;99.90;;;;;;5036166;28;20185;-85
2021/07/06 00:10:01;;;;;;;0.20;0.20;;;18.50;99.90;;;;;;5035751;28;20215;-84
2021/07/06 00:12:27;;;;;;;0.20;0.20;;;18.60;99.90;;;;;;5061792;28;20674;-84
2021/07/06 00:14:54;;;;;;;0.60;0.30;;;18.50;99.90;;;;;;5032712;28;20206;-84
2021/07/06 00:17:20;;;;;;;0.40;0.40;;;18.40;99.90;;;;;;5045039;28;20284;-85
2021/07/06 00:19:47;;;;;;;0.20;0.20;;;18.40;99.90;;;;;;5053437;28;20733;-85
2021/07/06 00:22:12;;;;;;;0.10;0.10;;;18.40;99.90;;;;;;5040266;28;20685;-85
2021/07/06 00:24:38;;;;;;;0.30;0.30;;;18.50;99.90;;;;;;5035207;28;20200;-85
2021/07/06 00:27:04;;;;;;;0.10;0.10;;;18.60;99.90;;;;;;5038497;28;20212;-85
2021/07/06 00:29:30;;;;;;;0.30;0.30;;;18.60;99.90;;;;;;5051303;28;20382;-84
2021/07/06 00:31:56;;;;;;;0.20;0.20;;;18.60;99.90;;;;;;5044317;28;20208;-85
2021/07/06 00:34:21;;;;;;;0.17;0.17;;;18.60;99.90;;;;;;5041415;28;20247;-84
2021/07/06 00:36:47;;;;;;;0.20;0.20;;;18.70;99.90;;;;;;5033524;28;20186;-85
2021/07/06 00:39:14;;;;;;;0.10;0.10;;;18.70;99.90;;;;;;5032951;28;20193;-84
2021/07/06 00:41:40;;;;;;;0.40;0.40;;;18.60;99.90;;;;;;5056081;28;20189;-85
2021/07/06 00:44:12;;;;;;;0.23;0.23;;;18.60;99.90;;;;;;5049577;28;20201;-84
2021/07/06 00:46:38;;;;;;;0.20;0.20;;;18.50;99.90;;;;;;5035300;28;20217;-84
2021/07/06 00:49:03;;;;;;;0.30;0.30;;;18.30;99.90;;;;;;5051442;28;20232;-85
2021/07/06 00:51:29;;;;;;;0.23;0.23;;;18.10;99.90;;;;;;5031461;28;20563;-85
2021/07/06 00:53:54;;;;;;;0.23;0.23;;;18.20;99.90;;;;;;5048895;28;20208;-84
2021/07/06 00:56:20;;;;;;;0.20;0.20;;;18.10;99.90;;;;;;5033722;28;20186;-85
2021/07/06 00:58:48;;;;;;;0.30;0.30;;;18.10;99.90;;;;;;5033478;28;20193;-84
2021/07/06 01:01:13;;;;;;;0.27;0.27;;;18.00;99.90;;;;;;5033000;28;20583;-85
2021/07/06 01:03:39;;;;;;;0.20;0.20;;;17.90;99.90;;;;;;5033603;28;20209;-85
2021/07/06 01:06:05;;;;;;;0.20;0.20;;;17.80;99.90;;;;;;5067056;28;20262;-84
2021/07/06 01:08:31;;;;;;;0.40;0.30;;;17.80;99.90;;;;;;5043616;28;20251;-85
2021/07/06 01:10:59;;;;;;;0.20;0.20;;;17.80;99.90;;;;;;5033713;28;20195;-85
2021/07/06 01:13:25;;;;;;;0.20;0.20;;;17.70;99.90;;;;;;5032909;28;20220;-84
2021/07/06 01:15:50;;;;;;;0.10;0.10;;;17.80;99.90;;;;;;5033668;28;20192;-84
2021/07/06 01:18:18;;;;;;;0.20;0.20;;;17.80;99.90;;;;;;5032802;28;20190;-84
2021/07/06 01:20:52;;;;;;;0.17;0.17;;;17.70;99.90;;;;;;5035669;28;20185;-85
2021/07/06 01:23:21;;;;;;;0.53;0.37;;;17.70;99.90;;;;;;5032477;28;20235;-84
2021/07/06 01:25:48;;;;;;;0.10;0.10;;;17.70;99.90;;;;;;5037493;28;20191;-85
2021/07/06 01:28:14;;;;;;;0.10;0.10;;;17.60;99.90;;;;;;5037409;28;20181;-84
2021/07/06 01:30:40;;;;;;;0.30;0.23;;;17.70;99.90;;;;;;5037559;28;20255;-84
2021/07/06 01:33:06;;;;;;;0.30;0.30;;;17.70;99.90;;;;;;5036305;28;20301;-84
2021/07/06 01:35:32;;;;;;;0.30;0.30;;;17.70;99.90;;;;;;5029885;28;20212;-84
2021/07/06 01:38:07;;;;;;;0.10;0.10;;;17.70;99.90;;;;;;5037115;28;20186;-83
2021/07/06 01:40:33;;;;;;;0.50;0.50;;;17.60;99.90;;;;;;5031139;28;20173;-83
2021/07/06 01:42:59;;;;;;;0.10;0.10;;;17.50;99.90;;;;;;5030175;28;20231;-85
2021/07/06 01:45:28;;;;;;;0.30;0.30;;;17.40;99.90;;;;;;5054574;28;20189;-84
2021/07/06 01:47:56;;;;;;;0.20;0.20;;;17.40;99.90;;;;;;5037486;28;20193;-85
2021/07/06 01:50:36;;;;;;;0.40;0.40;;;17.50;99.90;;;;;;5061821;28;20195;-85
2021/07/06 01:53:05;;;;;;;0.33;0.33;;;17.50;99.90;;;;;;5036616;28;20651;-85
2021/07/06 01:55:35;;;;;;;0.10;0.10;;;17.60;99.90;;;;;;5037344;28;20181;-85
2021/07/06 01:58:03;;;;;;;0.17;0.17;;;17.60;99.90;;;;;;5054522;28;20283;-85
2021/07/06 02:00:32;;;;;;;0.20;0.20;;;17.60;99.90;;;;;;5041598;28;20217;-85
2021/07/06 02:02:59;;;;;;;0.10;0.10;;;17.50;99.90;;;;;;5036142;28;20198;-85
2021/07/06 02:05:36;;;;;;;0.30;0.30;;;17.50;99.90;;;;;;5026377;28;20188;-84
2021/07/06 02:08:03;;;;;;;0.40;0.40;;;17.40;99.90;;;;;;5050896;28;20189;-85
2021/07/06 02:10:30;;;;;;;0.10;0.10;;;17.30;99.90;;;;;;5039850;28;20193;-85
2021/07/06 02:12:58;;;;;;;0.17;0.17;;;17.30;99.90;;;;;;5036458;28;20205;-85
2021/07/06 02:15:24;;;;;;;1.17;0.67;;;17.20;99.90;;;;;;5037620;28;20674;-85
2021/07/06 02:17:51;;;;;;;0.20;0.20;;;17.20;99.90;;;;;;5053891;28;20247;-85
2021/07/06 02:20:18;;;;;;;0.40;0.40;;;17.10;99.90;;;;;;5038471;28;20625;-85
2021/07/06 02:22:45;;;;;;;0.33;0.33;;;17.10;99.90;;;;;;5039018;28;20193;-85
2021/07/06 02:25:13;;;;;;;0.30;0.30;;;17.10;99.90;;;;;;5036647;28;20657;-85
2021/07/06 02:27:39;;;;;;;0.50;0.20;;;17.00;99.90;;;;;;5036083;28;20216;-85
2021/07/06 02:30:10;;;;;;;0.20;0.20;;;17.10;99.90;;;;;;5059481;28;20217;-84
2021/07/06 02:32:36;;;;;;;0.20;0.20;;;17.00;99.90;;;;;;5032957;28;20205;-84
2021/07/06 02:35:07;;;;;;;0.43;0.30;;;17.00;99.90;;;;;;5032851;28;20185;-85
2021/07/06 02:37:33;;;;;;;0.30;0.30;;;17.10;99.90;;;;;;5053441;28;20177;-85
2021/07/06 02:39:59;;;;;;;0.23;0.23;;;17.20;99.90;;;;;;5044056;28;20226;-85
2021/07/06 02:42:24;;;;;;;0.30;0.30;;;17.10;99.90;;;;;;5037080;28;20185;-85
2021/07/06 02:44:50;;;;;;;0.20;0.20;;;17.10;99.90;;;;;;5036135;28;20201;-85
2021/07/06 02:47:16;;;;;;;0.40;0.40;;;17.10;99.90;;;;;;5051641;28;20637;-85
2021/07/06 02:49:41;;;;;;;0.20;0.20;;;17.10;99.90;;;;;;5068602;28;20238;-85
2021/07/06 02:52:07;;;;;;;0.30;0.30;;;17.20;99.90;;;;;;5054272;28;20288;-85
2021/07/06 02:54:33;;;;;;;0.33;0.33;;;17.20;99.90;;;;;;5032733;28;20908;-85
2021/07/06 02:56:58;;;;;;;0.20;0.20;;;17.20;99.90;;;;;;5052300;28;20189;-85
2021/07/06 02:59:24;;;;;;;0.20;0.20;;;17.10;99.90;;;;;;5038624;28;20657;-85
2021/07/06 03:01:51;;;;;;;0.10;0.10;;;17.20;99.90;;;;;;5053500;28;20189;-84
2021/07/06 03:04:17;;;;;;;0.23;0.23;;;17.30;99.90;;;;;;5053273;28;20261;-85
2021/07/06 03:06:42;;;;;;;0.10;0.10;;;17.20;99.90;;;;;;5035815;28;20272;-85
2021/07/06 03:09:08;;;;;;;0.30;0.30;;;17.30;99.90;;;;;;5035415;28;20185;-85
2021/07/06 03:11:33;;;;;;;0.20;0.20;;;17.30;99.90;;;;;;5035877;28;20279;-85
2021/07/06 03:13:59;;;;;;;0.20;0.20;;;17.30;99.90;;;;;;5035379;28;20205;-85
2021/07/06 03:16:24;;;;;;;0.40;0.37;;;17.20;99.90;;;;;;5053296;28;20194;-84
2021/07/06 03:18:50;;;;;;;0.20;0.20;;;17.10;99.90;;;;;;5035728;28;20195;-85
2021/07/06 03:21:16;;;;;;;0.30;0.30;;;17.00;99.90;;;;;;5057088;28;20660;-85
2021/07/06 03:23:41;;;;;;;0.37;0.20;;;16.90;99.90;;;;;;5053399;28;20204;-85
2021/07/06 03:26:07;;;;;;;0.10;0.10;;;17.10;99.90;;;;;;5059854;28;20185;-85
2021/07/06 03:28:32;;;;;;;0.20;0.20;;;17.20;99.90;;;;;;5034544;28;20178;-84
2021/07/06 03:30:58;;;;;;;0.20;0.20;;;17.20;99.90;;;;;;5061817;28;20219;-85
2021/07/06 03:33:24;;;;;;;1.60;0.20;;;17.20;99.90;;;;;;5053064;28;20633;-85
2021/07/06 03:35:50;;;;;;;0.20;0.20;;;17.20;99.90;;;;;;5034859;28;20259;-85
2021/07/06 03:38:15;;;;;;;0.20;0.20;;;17.30;99.90;;;;;;5034868;28;20206;-85
2021/07/06 03:40:41;;;;;;;0.43;0.30;;;17.40;99.90;;;;;;5043314;28;20180;-85
2021/07/06 03:43:08;;;;;;;0.47;0.40;;;17.50;99.90;;;;;;5060939;28;20209;-85
2021/07/06 03:45:34;;;;;;;0.20;0.20;;;18.20;99.90;;;;;;5039348;28;20690;-85
2021/07/06 03:48:00;;;;;;;0.37;0.30;;;19.00;99.90;;;;;;5033510;28;20185;-85
2021/07/06 03:50:27;;;;;;;0.40;0.40;;;19.60;99.90;;;;;;5044307;28;20193;-85
2021/07/06 03:52:57;;;;;;;0.20;0.20;;;19.60;99.90;;;;;;5057142;28;20204;-85
2021/07/06 03:55:27;;;;;;;0.23;0.23;;;20.10;99.90;;;;;;5036118;28;20268;-85
2021/07/06 03:57:53;;;;;;;0.33;0.33;;;20.30;99.90;;;;;;5034687;28;20185;-85
2021/07/06 04:00:25;;;;;;;0.30;0.30;;;20.10;99.90;;;;;;5034713;28;20580;-85
2021/07/06 04:02:51;;;;;;;0.40;0.20;;;20.60;99.90;;;;;;5034511;28;20210;-85
2021/07/06 04:05:17;;;;;;;0.37;0.37;;;20.90;99.90;;;;;;5034436;28;20819;-85
2021/07/06 04:07:43;;;;;;;0.53;0.53;;;21.10;99.90;;;;;;5034244;28;20182;-85
2021/07/06 04:10:12;;;;;;;0.53;0.53;;;21.70;99.90;;;;;;5038650;28;20185;-85
2021/07/06 04:12:39;;;;;;;0.10;0.10;;;21.80;99.90;;;;;;5052368;28;20236;-85
2021/07/06 04:15:09;;;;;;;0.60;0.47;;;22.80;99.90;;;;;;5034413;28;20186;-85
2021/07/06 04:17:35;;;;;;;0.30;0.30;;;22.90;99.90;;;;;;5050352;28;20218;-85
2021/07/06 04:20:02;;;;;;;0.70;0.27;;;23.00;99.90;;;;;;5036247;28;20213;-85
2021/07/06 04:22:28;;;;;;;0.40;0.33;;;23.30;99.90;;;;;;5038476;28;20195;-85
2021/07/06 04:24:54;;;;;;;0.40;0.40;;;23.30;99.90;;;;;;5052060;28;20205;-85
2021/07/06 04:27:20;;;;;;;0.20;0.20;;;23.40;99.90;;;;;;5033734;28;20565;-85
2021/07/06 04:29:47;;;;;;;0.10;0.10;;;22.90;99.90;;;;;;5035444;28;20196;-85
2021/07/06 04:32:15;;;;;;;0.40;0.40;;;22.00;99.90;;;;;;5034301;28;20427;-85
2021/07/06 04:34:42;;;;;;;0.23;0.23;;;21.30;99.90;;;;;;5034112;28;20568;-85
2021/07/06 04:37:08;;;;;;;0.27;0.27;;;21.20;99.90;;;;;;5043143;28;20184;-85
2021/07/06 04:39:33;;;;;;;0.40;0.30;;;20.60;99.90;;;;;;5038162;28;20226;-85
2021/07/06 04:41:59;;;;;;;0.20;0.20;;;20.30;99.90;;;;;;5038213;28;20182;-85
2021/07/06 04:44:25;;;;;;;0.20;0.20;;;20.50;99.90;;;;;;5034772;28;20255;-84
2021/07/06 04:46:50;;;;;;;0.30;0.30;;;20.50;99.90;;;;;;5036902;28;20264;-84
2021/07/06 04:49:16;;;;;;;0.27;0.27;;;20.30;99.90;;;;;;5033845;28;20193;-84
2021/07/06 04:51:41;;;;;;;0.30;0.30;;;20.40;99.90;;;;;;5033537;28;20213;-84
2021/07/06 04:54:07;;;;;;;0.20;0.20;;;20.20;99.90;;;;;;5034959;28;20251;-83
2021/07/06 04:56:33;;;;;;;1.07;0.63;;;19.50;99.90;;;;;;5036833;28;20185;-84
2021/07/06 04:58:58;;;;;;;0.43;0.43;;;19.00;99.90;;;;;;5033541;28;20182;-85
2021/07/06 05:01:24;;;;;;;0.30;0.30;;;19.00;99.90;;;;;;5032385;28;20192;-84
2021/07/06 05:03:51;;;;;;;0.13;0.13;;;18.80;99.90;;;;;;5034017;28;20826;-84
2021/07/06 05:06:20;;;;;;;0.20;0.20;;;19.10;99.90;;;;;;5037166;28;20185;-84
2021/07/06 05:08:46;;;;;;;0.47;0.30;;;19.30;99.90;;;;;;5051135;28;20267;-84
2021/07/06 05:11:13;;;;;;;0.47;0.23;;;19.40;99.90;;;;;;5033757;28;20186;-84
2021/07/06 05:13:39;;;;;;;0.30;0.30;;;19.30;99.90;;;;;;5050155;28;20805;-84
2021/07/06 05:16:05;;;;;;;0.17;0.17;;;19.40;99.90;;;;;;5043688;28;20268;-82
2021/07/06 05:18:30;;;;;;;0.60;0.60;;;19.80;99.90;;;;;;5040127;28;20729;-82
2021/07/06 05:20:56;;;;;;;0.30;0.30;;;19.90;99.90;;;;;;5057178;28;20201;-82
2021/07/06 05:23:22;;;;;;;0.43;0.43;;;20.00;99.90;;;;;;5040600;28;20256;-82
2021/07/06 05:25:48;;;;;;;0.13;0.13;;;19.90;99.90;;;;;;5035177;28;20641;-83
2021/07/06 05:28:13;;;;;;;1.50;0.40;;;19.80;99.90;;;;;;5035795;28;20214;-82
2021/07/06 05:30:39;;;;;;;0.33;0.33;;;19.80;99.90;;;;;;5027594;28;20181;-82
2021/07/06 05:33:05;;;;;;;0.20;0.20;;;19.70;99.90;;;;;;5025528;28;20307;-83
2021/07/06 05:35:31;;;;;;;0.80;0.40;;;19.90;99.90;;;;;;5050671;28;20549;-83
2021/07/06 05:37:57;;;;;;;0.20;0.20;;;19.90;99.90;;;;;;5037376;28;20692;-81
2021/07/06 05:40:22;;;;;;;0.63;0.63;;;19.90;99.90;;;;;;5037523;28;20207;-83
2021/07/06 05:42:48;;;;;;;0.40;0.40;;;19.80;99.90;;;;;;5055734;28;20220;-83
2021/07/06 05:45:14;;;;;;;0.77;0.30;;;19.80;99.90;;;;;;5035288;28;20291;-83
2021/07/06 05:47:41;;;;;;;0.50;0.50;;;19.80;99.90;;;;;;5032853;28;20243;-84
2021/07/06 05:50:11;;;;;;;4.27;1.00;;;19.70;99.90;;;;;;5050887;28;20181;-83
2021/07/06 05:52:37;;;;;;;0.93;0.70;;;20.00;99.90;;;;;;5033327;28;20205;-83
2021/07/06 05:55:04;;;;;;;0.33;0.33;;;20.00;99.90;;;;;;5032979;28;20192;-84
2021/07/06 05:57:30;;;;;;;0.20;0.20;;;20.00;99.90;;;;;;5032950;28;20223;-83
2021/07/06 05:59:57;;;;;;;0.30;0.30;;;19.90;99.90;;;;;;5037260;28;20185;-83
2021/07/06 06:02:23;;;;;;;0.20;0.20;;;20.00;99.90;;;;;;5051774;28;20239;-83
2021/07/06 06:04:49;;;;;;;0.20;0.20;;;19.90;99.90;;;;;;5051354;28;20206;-84
2021/07/06 06:07:14;;;;;;;0.30;0.30;;;20.00;99.90;;;;;;5042472;28;20226;-84
2021/07/06 06:09:40;;;;;;;0.43;0.43;;;19.90;99.90;;;;;;5058838;28;20190;-84
2021/07/06 06:12:06;;;;;;;0.10;0.10;;;19.90;99.90;;;;;;5035174;28;20221;-84
2021/07/06 06:14:31;;;;;;;1.07;0.70;;;20.10;99.90;;;;;;5054137;28;20205;-84
2021/07/06 06:16:57;;;;;;;0.27;0.27;;;20.30;99.90;;;;;;5057689;28;20189;-84
2021/07/06 06:19:23;;;;;;;0.40;0.40;;;20.50;99.90;;;;;;5035377;28;20186;-84
2021/07/06 06:21:48;;;;;;;1.60;0.30;;;20.50;99.90;;;;;;5054675;28;20196;-84
2021/07/06 06:24:14;;;;;;;0.10;0.10;;;20.30;99.90;;;;;;5035379;28;20249;-84
2021/07/06 06:26:39;;;;;;;0.40;0.40;;;20.20;99.90;;;;;;5036696;28;20186;-84
2021/07/06 06:29:06;;;;;;;0.27;0.27;;;20.20;99.90;;;;;;5048361;28;20288;-84
2021/07/06 06:31:32;;;;;;;0.30;0.30;;;20.40;99.90;;;;;;5054183;28;20629;-84
2021/07/06 06:33:57;;;;;;;0.63;0.53;;;20.40;99.90;;;;;;5037937;28;20299;-83
2021/07/06 06:36:23;;;;;;;0.20;0.20;;;20.30;99.90;;;;;;5040614;28;20189;-84
2021/07/06 06:38:48;;;;;;;0.47;0.47;;;20.10;99.90;;;;;;5034858;28;20696;-82
2021/07/06 06:41:14;;;;;;;0.20;0.20;;;20.00;99.90;;;;;;5036118;28;20561;-84
2021/07/06 06:43:40;;;;;;;0.30;0.30;;;19.80;99.90;;;;;;5036440;28;20247;-83
2021/07/06 06:46:05;;;;;;;0.30;0.30;;;19.70;99.90;;;;;;5038687;28;20243;-83
2021/07/06 06:48:32;;;;;;;0.30;0.30;;;19.80;99.90;;;;;;5035307;28;20219;-84
2021/07/06 06:50:58;;;;;;;0.63;0.63;;;19.20;99.90;;;;;;5042879;28;20182;-84
2021/07/06 06:53:23;;;;;;;0.60;0.50;;;18.50;99.90;;;;;;5038956;28;20657;-83
2021/07/06 06:55:49;;;;;;;0.20;0.20;;;18.30;99.90;;;;;;5059173;28;20182;-83
2021/07/06 06:58:15;;;;;;;0.30;0.30;;;18.60;99.90;;;;;;5032995;28;20587;-82
2021/07/06 07:00:40;;;;;;;0.70;0.37;;;18.70;99.90;;;;;;5061488;28;20189;-84
2021/07/06 07:03:06;;;;;;;0.40;0.40;;;19.00;99.90;;;;;;5062671;28;20220;-83
2021/07/06 07:05:31;;;;;;;0.50;0.50;;;19.30;99.90;;;;;;5039737;28;20193;-83
2021/07/06 07:07:58;;;;;;;0.33;0.30;;;19.50;99.90;;;;;;5051819;28;20617;-83
2021/07/06 07:10:25;;;;;;;0.30;0.30;;;19.80;99.90;;;;;;5034800;28;20241;-84
2021/07/06 07:12:53;;;;;;;0.43;0.43;;;20.00;99.90;;;;;;5035427;28;20242;-83
2021/07/06 07:15:18;;;;;;;0.30;0.30;;;20.30;99.90;;;;;;5035727;28;20185;-83
2021/07/06 07:17:44;;;;;;;0.40;0.40;;;20.50;99.90;;;;;;5052099;28;20204;-83
2021/07/06 07:20:11;;;;;;;0.30;0.30;;;20.70;99.90;;;;;;5035491;28;20185;-83
2021/07/06 07:22:37;;;;;;;0.40;0.40;;;20.80;99.90;;;;;;5031889;28;20669;-83
2021/07/06 07:25:03;;;;;;;0.30;0.30;;;21.00;99.90;;;;;;5035662;28;20190;-84
2021/07/06 07:27:29;;;;;;;0.20;0.20;;;21.00;99.90;;;;;;5035486;28;20197;-84
2021/07/06 07:29:56;;;;;;;0.27;0.27;;;20.70;99.90;;;;;;5035528;28;20593;-83
2021/07/06 07:32:22;;;;;;;0.20;0.20;;;20.90;99.90;;;;;;5035718;28;20229;-83
2021/07/06 07:34:48;;;;;;;0.20;0.20;;;21.00;99.90;;;;;;5053370;28;20280;-84
2021/07/06 07:37:13;;;;;;;0.53;0.53;;;21.30;99.90;;;;;;5052265;28;20193;-83
2021/07/06 07:39:40;;;;;;;0.30;0.30;;;21.60;99.90;;;;;;5045017;28;20174;-83
2021/07/06 07:42:06;;;;;;;0.33;0.33;;;21.70;99.90;;;;;;5053097;28;20186;-83
2021/07/06 07:44:32;;;;;;;0.40;0.40;;;21.70;99.90;;;;;;5053249;28;20262;-83
2021/07/06 07:46:58;;;;;;;2.13;0.40;;;21.60;99.90;;;;;;5051477;28;20714;-84
2021/07/06 07:49:24;;;;;;;0.40;0.40;;;21.40;99.90;;;;;;5053465;28;20215;-83
2021/07/06 07:51:50;;;;;;;0.77;0.77;;;21.20;99.90;;;;;;5035068;28;20209;-83
2021/07/06 07:54:15;;;;;;;0.30;0.30;;;21.00;99.90;;;;;;5035143;28;20225;-84
2021/07/06 07:56:41;;;;;;;0.53;0.43;;;20.70;99.90;;;;;;5052449;28;20185;-83
2021/07/06 07:59:11;;;;;;;0.77;0.77;;;20.60;99.90;;;;;;5035073;28;20182;-83
2021/07/06 08:01:37;;;;;;;0.40;0.40;;;20.50;99.90;;;;;;5035028;28;20557;-83
2021/07/06 08:04:03;;;;;;;0.83;0.83;;;20.40;99.90;;;;;;5034808;28;20583;-83
2021/07/06 08:06:29;;;;;;;0.20;0.20;;;20.20;99.90;;;;;;5034652;28;20184;-83
2021/07/06 08:08:55;;;;;;;0.30;0.30;;;20.10;99.90;;;;;;5052265;28;20665;-84
2021/07/06 08:11:21;;;;;;;0.30;0.30;;;19.90;99.90;;;;;;5052409;28;20186;-84
2021/07/06 08:13:47;;;;;;;0.40;0.40;;;19.80;99.90;;;;;;5031172;28;20214;-84
2021/07/06 08:16:13;;;;;;;0.27;0.27;;;19.80;99.90;;;;;;5064684;28;20253;-84
2021/07/06 08:18:39;;;;;;;0.27;0.27;;;19.60;99.90;;;;;;5035046;28;20797;-84
2021/07/06 08:21:04;;;;;;;0.20;0.20;;;19.60;99.90;;;;;;5053900;28;20190;-82
2021/07/06 08:23:30;;;;;;;0.33;0.33;;;19.60;99.90;;;;;;5057230;28;20205;-83
2021/07/06 08:25:56;;;;;;;0.20;0.20;;;19.60;99.90;;;;;;5045787;28;20235;-81
2021/07/06 08:28:22;;;;;;;0.40;0.40;;;19.60;99.90;;;;;;5065362;28;20276;-82
2021/07/06 08:30:49;;;;;;;0.20;0.20;;;19.60;99.90;;;;;;5041670;28;20192;-82
2021/07/06 08:33:14;;;;;;;0.20;0.20;;;19.80;99.90;;;;;;5037316;28;20212;-82
2021/07/06 08:35:40;;;;;;;0.40;0.40;;;19.60;99.90;;;;;;5063180;28;20185;-83
2021/07/06 08:38:06;;;;;;;1.03;0.30;;;19.50;99.90;;;;;;5059200;28;20565;-83
2021/07/06 08:40:32;;;;;;;0.57;0.47;;;19.70;99.90;;;;;;5035419;28;20182;-86
2021/07/06 08:43:01;;;;;;;0.20;0.20;;;20.00;99.90;;;;;;5051052;28;20212;-82
2021/07/06 08:45:27;;;;;;;0.30;0.30;;;20.30;99.90;;;;;;5042529;28;20195;-83
2021/07/06 08:47:53;;;;;;;0.43;0.33;;;20.50;99.90;;;;;;5033821;28;20596;-83
2021/07/06 08:50:20;;;;;;;0.20;0.20;;;20.60;99.90;;;;;;5035938;28;20186;-83
2021/07/06 08:52:45;;;;;;;0.47;0.47;;;20.70;99.90;;;;;;5046370;28;20655;-82
2021/07/06 08:55:13;;;;;;;0.20;0.20;;;20.80;99.90;;;;;;5046819;28;20244;-83
2021/07/06 08:57:41;;;;;;;1.77;0.40;;;20.80;99.90;;;;;;5057765;28;20193;-83
2021/07/06 09:00:09;;;;;;;0.20;0.20;;;20.90;99.90;;;;;;5036194;28;20260;-83
2021/07/06 09:02:35;;;;;;;0.40;0.40;;;20.80;99.90;;;;;;5038520;28;20239;-83
2021/07/06 09:05:00;;;;;;;0.40;0.40;;;20.80;99.90;;;;;;5055665;28;20617;-83
2021/07/06 09:07:40;;;;;;;0.40;0.40;;;20.70;99.90;;;;;;5061108;28;20235;-83
2021/07/06 09:10:19;;;;;;;0.30;0.30;;;20.70;99.90;;;;;;5048450;28;20651;-81
2021/07/06 09:12:46;;;;;;;0.30;0.30;;;20.70;99.90;;;;;;5047664;28;20205;-83
2021/07/06 09:15:22;;;;;;;1.27;0.77;;;20.70;99.90;;;;;;5034071;28;20182;-83
2021/07/06 09:18:07;;;;;;;0.20;0.20;;;20.70;99.90;;;;;;5053183;28;20280;-83
2021/07/06 09:20:34;;;;;;;0.30;0.30;;;20.70;99.90;;;;;;5035822;28;20177;-83
2021/07/06 09:23:19;;;;;;;0.40;0.40;;;20.70;99.90;;;;;;5038324;28;20205;-83
2021/07/06 09:25:45;;;;;;;0.30;0.30;;;20.80;99.90;;;;;;5040779;28;20189;-83
2021/07/06 09:28:23;;;;;;;0.30;0.30;;;20.70;99.90;;;;;;5034496;28;20185;-83
2021/07/06 09:30:49;;;;;;;0.20;0.20;;;20.80;99.90;;;;;;5036985;28;20188;-83
2021/07/06 09:33:28;;;;;;;0.47;0.47;;;20.70;99.90;;;;;;5034564;28;20210;-83
2021/07/06 09:35:55;;;;;;;0.30;0.30;;;20.90;99.90;;;;;;5037814;28;20423;-83
2021/07/06 09:38:21;;;;;;;0.30;0.30;;;20.90;99.90;;;;;;5032961;28;20178;-83
2021/07/06 09:40:49;;;;;;;0.93;0.40;;;20.90;99.90;;;;;;5033518;28;20188;-83
2021/07/06 09:43:21;;;;;;;0.20;0.20;;;21.00;99.90;;;;;;5033209;28;20201;-82
2021/07/06 09:45:56;;;;;;;0.50;0.50;;;21.00;99.90;;;;;;5033367;28;20186;-83
2021/07/06 09:48:22;;;;;;;0.20;0.20;;;20.70;99.90;;;;;;5049093;28;20189;-83
2021/07/06 09:50:48;;;;;;;0.23;0.23;;;20.30;99.90;;;;;;5046135;28;20189;-83
2021/07/06 09:53:30;;;;;;;0.20;0.20;;;20.20;99.90;;;;;;5041660;28;20212;-83
2021/07/06 09:55:57;;;;;;;0.20;0.20;;;20.10;99.90;;;;;;5045526;28;20185;-83
2021/07/06 09:58:23;;;;;;;0.20;0.20;;;19.80;99.90;;;;;;5040065;28;20191;-83
2021/07/06 10:00:51;;;;;;;0.37;0.30;;;20.00;99.90;;;;;;5044847;28;20185;-83
2021/07/06 10:03:20;;;;;;;0.30;0.30;;;20.40;99.90;;;;;;5038619;28;20216;-83
2021/07/06 10:05:49;;;;;;;0.27;0.27;;;20.40;99.90;;;;;;5039600;28;20182;-82
2021/07/06 10:08:15;;;;;;;0.40;0.40;;;20.60;99.90;;;;;;5039731;28;20189;-83
2021/07/06 10:10:42;;;;;;;0.20;0.20;;;20.60;99.90;;;;;;5045609;28;20570;-83
2021/07/06 10:13:08;;;;;;;0.43;0.43;;;20.60;99.90;;;;;;5037733;28;20735;-83
2021/07/06 10:15:33;;;;;;;0.30;0.30;;;20.70;99.90;;;;;;5050755;28;20181;-82
2021/07/06 10:17:59;;;;;;;0.37;0.33;;;21.00;99.90;;;;;;5037488;28;20628;-83
2021/07/06 10:20:27;;;;;;;0.47;0.47;;;21.10;99.90;;;;;;5046456;28;20267;-83
2021/07/06 10:22:59;;;;;;;0.30;0.30;;;21.30;99.90;;;;;;5060360;28;20205;-83
2021/07/06 10:25:28;;;;;;;0.20;0.20;;;21.50;99.90;;;;;;5051863;28;20184;-83
2021/07/06 10:28:18;;;;;;;0.20;0.20;;;21.80;99.90;;;;;;5065775;28;20282;-82
2021/07/06 10:30:46;;;;;;;0.30;0.27;;;22.10;99.90;;;;;;5044075;28;20225;-83
2021/07/06 10:33:27;;;;;;;0.40;0.40;;;22.30;99.90;;;;;;5056553;28;20223;-82
2021/07/06 10:35:53;;;;;;;0.20;0.20;;;22.50;99.90;;;;;;5056636;28;20182;-83
2021/07/06 10:38:31;;;;;;;0.50;0.40;;;22.80;99.90;;;;;;5062098;28;20258;-83
2021/07/06 10:41:00;;;;;;;0.30;0.30;;;22.80;99.90;;;;;;5054517;28;20174;-83
2021/07/06 10:43:38;;;;;;;0.30;0.30;;;22.60;99.90;;;;;;5056898;28;20212;-83
2021/07/06 10:46:18;;;;;;;0.30;0.30;;;22.30;99.90;;;;;;5066652;28;20197;-83
2021/07/06 10:49:06;;;;;;;0.20;0.20;;;22.10;99.90;;;;;;5038562;28;20661;-83
2021/07/06 10:51:34;;;;;;;0.20;0.20;;;22.30;99.90;;;;;;5051057;28;20186;-83
2021/07/06 10:54:15;;;;;;;0.30;0.30;;;22.40;99.90;;;;;;5034119;28;20221;-83
2021/07/06 10:56:46;;;;;;;0.17;0.17;;;22.30;99.90;;;;;;5052828;28;20174;-83
2021/07/06 10:59:24;;;;;;;0.40;0.40;;;22.00;99.90;;;;;;5034190;28;20729;-83
2021/07/06 11:01:49;;;;;;;0.20;0.20;;;22.00;99.90;;;;;;5034077;28;20207;-83
2021/07/06 11:04:34;;;;;;;8.90;0.40;;;22.20;99.90;;;;;;5052979;28;20678;-83
2021/07/06 11:06:59;;;;;;;0.40;0.40;;;22.30;99.90;;;;;;5051566;28;20189;-82
2021/07/06 11:09:25;;;;;;;0.30;0.30;;;22.50;99.90;;;;;;5035295;28;20193;-83
2021/07/06 11:11:51;;;;;;;0.20;0.20;;;22.60;99.90;;;;;;5034046;28;20386;-83
2021/07/06 11:14:24;;;;;;;0.30;0.23;;;22.70;99.90;;;;;;5034830;28;20202;-83
2021/07/06 11:17:01;;;;;;;0.20;0.20;;;23.00;99.90;;;;;;5053787;28;20197;-83
2021/07/06 11:19:36;;;;;;;0.10;0.10;;;23.40;99.90;;;;;;5049650;28;20181;-83
2021/07/06 11:22:13;;;;;;;0.47;0.30;;;23.90;99.90;;;;;;5055218;28;20675;-83
2021/07/06 11:24:39;;;;;;;0.40;0.40;;;24.10;99.90;;;;;;5052870;28;20295;-82
2021/07/06 11:27:05;;;;;;;0.20;0.20;;;24.30;99.90;;;;;;5035139;28;20678;-83
2021/07/06 11:29:35;;;;;;;0.20;0.20;;;24.30;99.90;;;;;;5035270;28;20323;-82
2021/07/06 11:32:12;;;;;;;0.20;0.20;;;24.20;99.90;;;;;;5049000;28;20248;-82
2021/07/06 11:34:38;;;;;;;0.10;0.10;;;24.20;99.90;;;;;;5034107;28;20201;-82
2021/07/06 11:37:05;;;;;;;0.27;0.27;;;24.40;99.90;;;;;;5034658;28;20277;-82
2021/07/06 11:39:34;;;;;;;0.10;0.10;;;24.60;99.90;;;;;;5033246;28;20799;-82
2021/07/06 11:42:00;;;;;;;0.20;0.20;;;24.50;99.90;;;;;;5035754;28;20349;-83
2021/07/06 11:44:26;;;;;;;0.23;0.23;;;24.20;99.90;;;;;;5061267;28;20768;-83
2021/07/06 11:46:56;;;;;;;0.20;0.20;;;23.90;99.90;;;;;;5054528;28;20328;-83
2021/07/06 11:49:22;;;;;;;0.10;0.10;;;23.60;99.90;;;;;;5036877;28;20189;-83
2021/07/06 11:51:47;;;;;;;0.30;0.30;;;23.40;99.90;;;;;;5059013;28;20569;-83
2021/07/06 11:54:13;;;;;;;0.37;0.20;;;23.20;99.90;;;;;;5034781;28;22058;-83
2021/07/06 11:56:39;;;;;;;1.87;0.40;;;23.10;99.90;;;;;;5035047;28;20181;-83
2021/07/06 11:59:09;;;;;;;1.23;0.50;;;23.00;99.90;;;;;;5036992;28;20181;-83
2021/07/06 12:01:35;;;;;;;0.20;0.20;;;23.00;99.90;;;;;;5053242;28;20549;-83
2021/07/06 12:04:01;;;;;;;0.10;0.10;;;22.80;99.90;;;;;;5036568;28;20205;-83
2021/07/06 12:06:30;;;;;;;0.30;0.30;;;22.70;99.90;;;;;;5057691;28;20620;-83
2021/07/06 12:09:03;;;;;;;1.10;0.30;;;22.80;99.90;;;;;;5039454;28;20182;-83
2021/07/06 12:11:29;;;;;;;0.30;0.30;;;23.00;99.90;;;;;;5044868;28;20177;-83
2021/07/06 12:14:02;;;;;;;0.13;0.13;;;23.00;99.90;;;;;;5052550;28;20205;-84
2021/07/06 12:16:39;;;;;;;0.30;0.30;;;23.00;99.90;;;;;;5038923;28;20232;-84
2021/07/06 12:19:07;;;;;;;0.83;0.30;;;23.10;99.90;;;;;;5054526;28;20189;-84
2021/07/06 12:21:38;;;;;;;0.10;0.10;;;22.90;99.90;;;;;;5066689;28;20263;-84
2021/07/06 12:24:27;;;;;;;0.10;0.10;;;22.90;99.90;;;;;;5038268;28;20308;-83
2021/07/06 12:26:54;;;;;;;0.13;0.13;;;23.00;99.90;;;;;;5038140;28;20170;-83
2021/07/06 12:29:33;;;;;;;0.10;0.10;;;22.90;99.90;;;;;;5041787;28;20185;-83
2021/07/06 12:31:59;;;;;;;0.20;0.20;;;23.00;99.90;;;;;;5061771;28;20211;-82
2021/07/06 12:34:40;;;;;;;0.20;0.20;;;23.00;99.90;;;;;;5058010;28;20274;-83
2021/07/06 12:37:10;;;;;;;0.10;0.10;;;23.00;99.90;;;;;;5038453;28;20182;-84
2021/07/06 12:39:37;;;;;;;0.30;0.30;;;23.10;99.90;;;;;;5052076;28;20174;-84
2021/07/06 12:42:09;;;;;;;0.10;0.10;;;23.10;99.90;;;;;;5034204;28;20183;-84
2021/07/06 12:44:35;;;;;;;0.10;0.10;;;23.00;99.90;;;;;;5033496;28;20254;-83
2021/07/06 12:47:26;;;;;;;0.23;0.23;;;22.90;99.90;;;;;;5047113;28;20185;-83
2021/07/06 12:49:59;;;;;;;0.20;0.20;;;22.80;99.90;;;;;;5036824;28;20200;-84